Flight Track Log - Related Links

Times and Time Zones

All times are in EDT time to prevent confusion due to time zone crossing. See the GPD95 flight status page for this flight to view local times or setup timezone preferences in your user account.


Time Position Orientation Groundspeed Altitude Reporting Facility
EDT Latitude Longitude Course Direction KTS MPH feet Rate Location/Type
Fri 04:11:00 PM 41.0778 -72.7011 77° East  Level Estimated
Fri 04:12:00 PM 41.0875 -72.6404 78° East  Level Estimated
Fri 04:13:00 PM 41.0973 -72.5798 78° East  Level Estimated
Fri 04:14:00 PM 41.1069 -72.5191 78° East  Level Estimated
Fri 04:15:00 PM 41.1166 -72.4584 78° East  Level Estimated
Fri 04:16:00 PM 41.1262 -72.3977 78° East  Level Estimated
Fri 04:17:00 PM 41.1358 -72.3369 78° East  Level Estimated
Fri 04:18:00 PM 41.1454 -72.2762 78° East  Level Estimated
Fri 04:19:00 PM 41.1549 -72.2154 78° East  Level Estimated
Fri 04:20:00 PM 41.1644 -72.1546 78° East  Level Estimated
Fri 04:20:27 PM 41.1833 -73.8667 79° East 152 175 7,000  Level New York TRACON
Fri 04:21:00 PM 41.1738 -72.0938 78° East  Level Estimated
Fri 04:21:27 PM 41.2000 -73.8167 66° East 153 176 7,000  Level New York TRACON
Fri 04:22:00 PM 41.1833 -72.0330 78° East  Level Estimated
Fri 04:22:27 PM 41.2167 -73.7667 66° East 150 173 7,000  Level New York TRACON
Fri 04:23:00 PM 41.1927 -71.9721 78° East  Level Estimated
Fri 04:23:27 PM 41.2333 -73.7167 66° East 151 174 7,000  Level New York TRACON
Fri 04:24:00 PM 41.2020 -71.9112 78° East  Level Estimated
Fri 04:24:27 PM 41.2500 -73.6667 66° East 148 170 7,000  Level New York TRACON
Fri 04:25:00 PM 41.2155 -71.8179 79° East  Level FlightAware Approximate
Fri 04:25:27 PM 41.2667 -73.6167 66° East 149 171 7,000  Level New York TRACON
Fri 04:26:27 PM 41.2833 -73.5667 66° East 150 173 7,000  Level New York TRACON
Fri 04:27:22 PM 41.3000 -73.5167 66° East 151 174 7,000  Level New York TRACON
Fri 04:28:22 PM 41.3167 -73.4833 56° Northeast 146 168 7,000  Level New York TRACON
Fri 04:29:27 PM 41.3333 -73.4167 72° East 150 173 7,000 46 Level New York TRACON
Fri 04:30:32 PM 41.3544 -73.3747 56° Northeast 148 170 7,100 48 Climbing Boston Center
Fri 04:31:33 PM 41.3736 -73.3225 64° Northeast 148 170 7,100  Level Boston Center
Fri 04:32:33 PM 41.3908 -73.2703 66° East 149 171 7,100  Level Boston Center
Fri 04:33:34 PM 41.4097 -73.2206 63° Northeast 149 171 7,100  Level Boston Center
Fri 04:34:35 PM 41.4269 -73.1708 65° Northeast 147 169 7,100  Level Boston Center
Fri 04:35:36 PM 41.4439 -73.1242 64° Northeast 146 168 7,100  Level Boston Center
Fri 04:36:37 PM 41.4608 -73.0744 66° East 145 167 7,100  Level Boston Center
Fri 04:37:38 PM 41.4778 -73.0247 66° East 144 166 7,100  Level Boston Center
Fri 04:38:39 PM 41.4967 -72.9750 63° Northeast 144 166 7,100  Level Boston Center
Fri 04:39:33 PM 41.5114 -72.9308 66° East 144 166 7,100  Level Boston Center
Fri 04:40:40 PM 41.5200 -72.8753 78° East 148 170 7,100  Level Boston Center
Fri 04:41:35 PM 41.5203 -72.8228 90° East 149 171 7,100  Level Boston Center
Fri 04:42:36 PM 41.5206 -72.7728 90° East 146 168 7,100  Level Boston Center
Fri 04:43:37 PM 41.5186 -72.7144 93° East 147 169 7,100  Level Boston Center
Fri 04:44:38 PM 41.5208 -72.6619 87° East 145 167 7,100  Level Boston Center
Fri 04:45:40 PM 41.5228 -72.6064 87° East 145 167 7,100  Level Boston Center
Fri 04:46:41 PM 41.5231 -72.5511 90° East 147 169 7,100  Level Boston Center
Fri 04:47:42 PM 41.5231 -72.4928 90° East 147 169 7,100  Level Boston Center
Fri 04:48:43 PM 41.5250 -72.4400 87° East 150 173 7,100  Level Boston Center
Fri 04:49:37 PM 41.5250 -72.3875 90° East 149 171 7,100  Level Boston Center
Fri 04:50:38 PM 41.5083 -72.3375 114° Southeast 167 192 7,100  Level Boston Center
Fri 04:51:45 PM 41.4811 -72.2906 128° Southeast 156 180 7,100 -94 Level Boston Center
Fri 04:52:46 PM 41.4519 -72.2461 131° Southeast 154 177 6,900 -256 Descending Boston Center
Fri 04:53:42 PM 41.4206 -72.2047 135° Southeast 167 192 6,600 -362 Descending Boston Center
Fri 04:54:42 PM 41.3933 -72.1606 129° Southeast 155 178 6,200 -397 Descending Boston Center
Fri 04:55:43 PM 41.3661 -72.1136 128° Southeast 156 180 5,800 -393 Descending Boston Center
Fri 04:56:44 PM 41.3369 -72.0669 130° Southeast 166 191 5,400 -362 Descending Boston Center
Fri 04:57:39 PM 41.3347 -72.0200 94° East 155 178 5,100 -198 Descending Boston Center
Fri 04:58:45 PM 41.3344 -71.9592 90° East 144 166 5,000 -47 Descending Boston Center
Fri 04:59:46 PM 41.3383 -71.9067 84° East 144 166 5,000  Level Boston Center
Fri 05:00:53 PM 41.3422 -71.8483 85° East 144 166 5,000  Level Boston Center
Fri 05:01:48 PM 41.3461 -71.8014 84° East 141 162 5,000 49 Level Boston Center
Fri 05:02:55 PM 41.3436 -71.7433 93° East 146 168 5,100  Climbing Boston Center
Fri 05:03:56 PM 41.3497 -71.6881 82° East 142 163 5,000 -49 Descending Boston Center
Fri 05:04:57 PM 41.3492 -71.6356 91° East 150 173 5,000  Level Boston Center
Fri 05:05:58 PM 41.3550 -71.5828 82° East 138 159 5,000  Level Boston Center
Fri 05:07:05 PM 41.3567 -71.5192 88° East 142 163 5,000  Level Boston Center
Fri 05:08:06 PM 41.3583 -71.4667 88° East 144 166 5,000  Level Boston Center
Fri 05:09:07 PM 41.3600 -71.4142 88° East 142 163 5,000  Level Boston Center
Fri 05:10:07 PM 41.3636 -71.3586 85° East 141 162 5,000  Level Boston Center
Fri 05:11:08 PM 41.3672 -71.3089 84° East 140 161 5,000  Level Boston Center
Fri 05:12:09 PM 41.3689 -71.2533 88° East 144 166 5,000  Level Boston Center
Fri 05:14:00 PM 41.3673 -71.0789 91° East  Level FlightAware Approximate
Fri 05:21:00 PM 41.3934 -70.6139 87° East  Level Estimated
Fri 05:22:00 PM 41.3934 -70.6139 87° East  Level Estimated
Fri 05:23:00 PM 41.3934 -70.6139 87° East  Level Estimated
Fri 05:24:00 PM 41.3934 -70.6139 87° East  Level Estimated
Fri 05:25:00 PM 41.3934 -70.6139 87° East  Level Estimated
Fri 05:26:00 PM 41.3934 -70.6139 87° East  Level Estimated
Fri 05:27:00 PM 41.3934 -70.6139 87° East  Level Estimated
Fri 05:28:00 PM 41.3934 -70.6139 87° East  Level Estimated
Fri 05:29:00 PM 41.3934 -70.6139 87° East  Level Estimated
Fri 05:30:00 PM 41.3934 -70.6139 87° East  Level Estimated
Fri 05:31:00 PM 41.3934 -70.6139 87° East  Level Estimated
Fri 05:32:00 PM 41.3934 -70.6139 87° East  Level Estimated
Fri 05:33:00 PM 41.3934 -70.6139 87° East  Level Estimated
Fri 05:34:00 PM 41.3934 -70.6139 87° East  Level Estimated
Fri 05:35:00 PM 41.3934 -70.6139 87° East  Level Estimated
Fri 05:36:00 PM 41.3934 -70.6139 87° East  Level Estimated
Fri 05:37:00 PM 41.3934 -70.6139 87° East  Level Estimated
Fri 05:38:00 PM 41.3934 -70.6139 87° East  Level Estimated

Login

Don't have an account? Register now (free) for customized features, flight alerts, and more!